Time;durP1;ratioP1;P1;durP2;ratioP2;P2;SDS_P1;SDS_P2;PMS_P1;PMS_P2;Temp;Humidity;BMP_temperature;BMP_pressure;BME280_temperature;BME280_humidity;BME280_pressure;Samples;Min_cycle;Max_cycle;Signal;HPM_P1;HPM_P2
2022/08/12 00:44:21;;;;;;;;;;;461.10;1920.00;;;;;;5070946;28;20010;-55
2022/08/12 00:46:52;;;;;;;;;;;461.10;1920.00;;;;;;5070994;28;19909;-59
2022/08/12 00:49:19;;;;;;;;;;;461.10;1920.00;;;;;;5070965;28;20385;-56
2022/08/12 00:54:29;;;;;;;;;;;461.20;1920.00;;;;;;5071280;28;19962;-59
2022/08/12 00:56:57;;;;;;;;;;;461.20;1894.40;;;;;;5071183;28;19912;-56
2022/08/12 00:59:23;;;;;;;;;;;461.20;1894.40;;;;;;5071127;28;19964;-60
2022/08/12 01:01:49;;;;;;;;;;;461.20;1894.40;;;;;;5070304;28;19967;-58
2022/08/12 01:12:31;;;;;;;;;;;461.00;1971.20;;;;;;5074883;28;19923;-59
2022/08/12 01:14:57;;;;;;;;;;;461.00;1971.20;;;;;;5074734;28;19970;-57
2022/08/12 01:17:23;;;;;;;;;;;461.00;1971.20;;;;;;5074934;28;19915;-55
2022/08/12 01:19:51;;;;;;;;;;;461.00;1971.20;;;;;;5074901;28;19919;-59
2022/08/12 01:22:28;;;;;;;;;;;461.00;1971.20;;;;;;5074734;28;19915;-59
2022/08/12 01:25:00;;;;;;;;;;;461.10;1945.60;;;;;;5074719;28;20271;-60
2022/08/12 01:27:26;;;;;;;;;;;461.00;1945.60;;;;;;5074644;28;19908;-56
2022/08/12 01:29:52;;;;;;;;;;;461.00;1945.60;;;;;;5074663;28;19913;-60
2022/08/12 01:32:19;;;;;;;;;;;461.10;1920.00;;;;;;5074237;28;19920;-56
2022/08/12 01:34:52;;;;;;;;;;;461.00;1945.60;;;;;;5074584;28;19912;-57
2022/08/12 01:37:21;;;;;;;;;;;460.90;1971.20;;;;;;5074443;28;19909;-60
2022/08/12 01:39:51;;;;;;;;;;;461.00;1996.80;;;;;;5074580;28;19948;-59
2022/08/12 01:42:18;;;;;;;;;;;461.00;1996.80;;;;;;5074455;28;19908;-57
2022/08/12 01:44:45;;;;;;;;;;;461.00;1996.80;;;;;;5074671;28;19912;-59
2022/08/12 01:47:30;;;;;;;;;;;461.00;1996.80;;;;;;5074179;28;20286;-60
2022/08/12 01:50:07;;;;;;;;;;;461.00;1971.20;;;;;;5074459;28;20413;-57
2022/08/12 01:52:52;;;;;;;;;;;461.00;1971.20;;;;;;5074348;28;19916;-60
2022/08/12 01:55:19;;;;;;;;;;;461.00;1945.60;;;;;;5074078;28;20003;-59
2022/08/12 01:57:46;;;;;;;;;;;461.00;1971.20;;;;;;5074483;28;19915;-55
2022/08/12 02:00:13;;;;;;;;;;;461.10;1971.20;;;;;;5073837;28;19999;-56
2022/08/12 02:02:45;;;;;;;;;;;461.10;1971.20;;;;;;5073969;28;19928;-56
2022/08/12 02:11:21;;;;;;;;;;;461.10;1945.60;;;;;;5073954;28;20290;-56
2022/08/12 02:14:02;;;;;;;;;;;461.00;1971.20;;;;;;5073606;28;19908;-57
2022/08/12 02:16:30;;;;;;;;;;;460.90;1971.20;;;;;;5072874;28;19908;-57
2022/08/12 02:19:14;;;;;;;;;;;460.90;1971.20;;;;;;5073932;28;19955;-57
2022/08/12 02:22:03;;;;;;;;;;;460.90;1971.20;;;;;;5073554;28;19908;-56
2022/08/12 02:24:30;;;;;;;;;;;460.80;2022.40;;;;;;5031415;28;19944;-56
2022/08/12 02:26:56;;;;;;;;;;;436.10;2022.40;;;;;;5031613;28;19909;-55
2022/08/12 02:29:22;;;;;;;;;;;436.10;2022.40;;;;;;5031598;28;19916;-58
2022/08/12 02:31:48;;;;;;;;;;;435.90;2048.00;;;;;;5030985;28;19995;-56
2022/08/12 02:34:15;;;;;;;;;;;435.90;2073.60;;;;;;5031423;28;19928;-60
2022/08/12 02:36:43;;;;;;;;;;;435.90;2073.60;;;;;;5031299;28;19910;-56
2022/08/12 02:39:12;;;;;;;;;;;435.80;2073.60;;;;;;5031174;28;19916;-56
2022/08/12 02:41:41;;;;;;;;;;;435.70;2099.20;;;;;;5031225;28;20387;-57
2022/08/12 02:44:08;;;;;;;;;;;435.70;2124.80;;;;;;5031371;28;19909;-59
2022/08/12 02:46:34;;;;;;;;;;;435.60;2150.40;;;;;;5031130;28;19909;-60
2022/08/12 02:49:03;;;;;;;;;;;435.60;2150.40;;;;;;5031121;28;20000;-58
2022/08/12 02:51:30;;;;;;;;;;;435.60;2176.00;;;;;;5030815;28;19982;-56
2022/08/12 02:53:57;;;;;;;;;;;435.60;2176.00;;;;;;5031194;28;19921;-55
2022/08/12 02:56:26;;;;;;;;;;;435.50;2201.60;;;;;;5031086;28;19944;-60
2022/08/12 02:58:53;;;;;;;;;;;435.50;2201.60;;;;;;5031191;28;20299;-55
2022/08/12 03:01:20;;;;;;;;;;;435.50;2227.20;;;;;;5048967;28;19920;-56
2022/08/12 03:03:49;;;;;;;;;;;435.50;2227.20;;;;;;5073044;28;19959;-56
2022/08/12 03:06:16;;;;;;;;;;;435.60;2201.60;;;;;;5073190;28;19909;-57
2022/08/12 03:08:44;;;;;;;;;;;435.60;2201.60;;;;;;5072581;28;19908;-56
2022/08/12 03:11:20;;;;;;;;;;;435.60;2227.20;;;;;;5072694;28;20400;-56
2022/08/12 03:13:57;;;;;;;;;;;435.50;2227.20;;;;;;5072899;28;19966;-57
2022/08/12 03:16:26;;;;;;;;;;;435.60;2176.00;;;;;;5072595;28;19913;-56
2022/08/12 03:18:53;;;;;;;;;;;435.60;2176.00;;;;;;5072455;28;19995;-55
2022/08/12 03:21:19;;;;;;;;;;;435.60;2176.00;;;;;;5072698;28;19909;-56
2022/08/12 03:23:46;;;;;;;;;;;435.60;2176.00;;;;;;5072663;28;19912;-58
2022/08/12 03:26:13;;;;;;;;;;;435.60;2176.00;;;;;;5071483;28;19915;-56
2022/08/12 03:28:58;;;;;;;;;;;435.60;2176.00;;;;;;5072088;28;19908;-56
2022/08/12 03:31:28;;;;;;;;;;;435.70;2150.40;;;;;;5072045;28;19920;-56
2022/08/12 03:34:01;;;;;;;;;;;435.70;2124.80;;;;;;5072332;28;19943;-60
2022/08/12 03:36:27;;;;;;;;;;;435.70;2150.40;;;;;;5072104;28;19909;-56
2022/08/12 03:41:58;;;;;;;;;;;435.70;2176.00;;;;;;5072036;28;19916;-59
2022/08/12 04:01:05;;;;;;;;;;;435.60;2355.20;;;;;;5071883;28;19927;-60
2022/08/12 04:06:17;;;;;;;;;;;435.70;2304.00;;;;;;5072056;28;19916;-53
2022/08/12 04:08:43;;;;;;;;;;;435.60;2355.20;;;;;;5071633;28;20270;-56
2022/08/12 04:13:52;;;;;;;;;;;435.90;2304.00;;;;;;5071869;28;19915;-60
2022/08/12 04:16:18;;;;;;;;;;;436.00;2252.80;;;;;;5071283;28;19908;-56
2022/08/12 04:18:45;;;;;;;;;;;436.00;2252.80;;;;;;5071486;28;19908;-60
2022/08/12 04:21:10;;;;;;;;;;;436.10;2227.20;;;;;;5071388;28;19915;-59
2022/08/12 04:23:37;;;;;;;;;;;436.10;2252.80;;;;;;5071395;28;19909;-58
2022/08/12 04:26:05;;;;;;;;;;;436.10;2304.00;;;;;;5071650;28;19909;-56
2022/08/12 04:28:31;;;;;;;;;;;436.10;2304.00;;;;;;5071127;28;20366;-59
2022/08/12 04:30:56;;;;;;;;;;;460.80;2329.60;;;;;;5071138;28;19970;-60
2022/08/12 04:33:23;;;;;;;;;;;460.80;2278.40;;;;;;5071477;28;19924;-57
2022/08/12 04:35:49;;;;;;;;;;;460.90;2278.40;;;;;;5071166;28;19966;-69
2022/08/12 04:38:15;;;;;;;;;;;461.00;2278.40;;;;;;5070770;28;20320;-62
2022/08/12 04:40:44;;;;;;;;;;;461.00;2278.40;;;;;;5071000;28;20346;-66
2022/08/12 04:43:10;;;;;;;;;;;461.10;2252.80;;;;;;5071166;28;19909;-70
2022/08/12 04:45:36;;;;;;;;;;;461.30;2176.00;;;;;;5071379;28;19916;-60
2022/08/12 04:48:02;;;;;;;;;;;461.40;2176.00;;;;;;5070836;28;19912;-62
2022/08/12 04:50:27;;;;;;;;;;;461.40;2201.60;;;;;;5070923;28;20263;-60
2022/08/12 04:52:54;;;;;;;;;;;461.60;2201.60;;;;;;5071192;28;19912;-70
2022/08/12 04:55:21;;;;;;;;;;;486.50;2176.00;;;;;;5071040;28;19909;-59
2022/08/12 04:57:47;;;;;;;;;;;512.80;2022.40;;;;;;5071262;28;20370;-70
2022/08/12 05:00:15;;;;;;;;;;;563.20;1920.00;;;;;;5070961;28;20329;-61
2022/08/12 05:02:41;;;;;;;;;;;589.00;1817.60;;;;;;5070636;28;20355;-68
2022/08/12 05:05:16;;;;;;;;;;;614.60;1689.60;;;;;;5071205;28;19908;-69
2022/08/12 05:07:41;;;;;;;;;;;640.30;1587.20;;;;;;5070794;28;19915;-59
2022/08/12 05:10:07;;;;;;;;;;;665.60;1561.60;;;;;;5070935;28;19908;-68
2022/08/12 05:12:35;;;;;;;;;;;666.30;1510.40;;;;;;5070831;28;19917;-69
2022/08/12 05:15:00;;;;;;;;;;;717.40;1408.00;;;;;;5070798;28;19944;-70
2022/08/12 05:17:26;;;;;;;;;;;768.30;1305.60;;;;;;5070662;28;19967;-62
2022/08/12 05:19:52;;;;;;;;;;;794.20;1254.40;;;;;;5070550;28;19908;-69
2022/08/12 05:22:17;;;;;;;;;;;820.00;1177.60;;;;;;5070413;28;19961;-59
2022/08/12 05:24:43;;;;;;;;;;;845.40;1152.00;;;;;;5070737;28;19909;-70
2022/08/12 05:27:10;;;;;;;;;;;870.60;1100.80;;;;;;5070762;28;19909;-69
2022/08/12 05:29:36;;;;;;;;;;;871.10;1075.20;;;;;;5070642;28;20396;-68
2022/08/12 05:32:02;;;;;;;;;;;896.60;1024.00;;;;;;5070651;28;19978;-68
2022/08/12 05:34:29;;;;;;;;;;;896.90;1024.00;;;;;;5070371;28;19908;-60
2022/08/12 05:36:55;;;;;;;;;;;921.70;1049.60;;;;;;5070751;28;20421;-68
2022/08/12 05:39:20;;;;;;;;;;;922.10;1024.00;;;;;;5070509;28;19944;-61
2022/08/12 05:41:46;;;;;;;;;;;922.10;1024.00;;;;;;5071048;28;19908;-69
2022/08/12 05:44:12;;;;;;;;;;;922.40;998.40;;;;;;5070695;28;19958;-61
2022/08/12 05:46:38;;;;;;;;;;;947.40;972.80;;;;;;5070674;28;19934;-61
2022/08/12 05:49:04;;;;;;;;;;;947.60;998.40;;;;;;5070844;28;19912;-58
2022/08/12 05:51:32;;;;;;;;;;;947.40;998.40;;;;;;5073502;28;19916;-68
2022/08/12 05:53:57;;;;;;;;;;;922.50;998.40;;;;;;5074166;28;20366;-57
2022/08/12 05:56:24;;;;;;;;;;;845.20;1152.00;;;;;;5074428;28;19954;-67
2022/08/12 05:58:50;;;;;;;;;;;870.40;1126.40;;;;;;5074070;28;20285;-66
2022/08/12 06:01:16;;;;;;;;;;;947.30;1024.00;;;;;;5073955;28;19925;-66
2022/08/12 06:03:42;;;;;;;;;;;998.50;972.80;;;;;;5074197;28;19913;-67
2022/08/12 06:06:09;;;;;;;;;;;947.30;998.40;;;;;;5073905;28;19944;-58
2022/08/12 06:08:34;;;;;;;;;;;845.50;1126.40;;;;;;5073935;28;19909;-67
2022/08/12 06:11:03;;;;;;;;;;;819.40;1177.60;;;;;;5073643;28;19916;-66
2022/08/12 06:13:29;;;;;;;;;;;793.70;1254.40;;;;;;5073909;28;19941;-67
2022/08/12 06:15:55;;;;;;;;;;;768.10;1254.40;;;;;;5073751;28;20282;-68
2022/08/12 06:18:20;;;;;;;;;;;743.00;1280.00;;;;;;5073748;28;19908;-61
2022/08/12 06:20:48;;;;;;;;;;;717.70;1305.60;;;;;;5073691;28;20310;-58
2022/08/12 06:23:14;;;;;;;;;;;717.60;1280.00;;;;;;5073639;28;20351;-61
2022/08/12 06:25:40;;;;;;;;;;;742.90;1305.60;;;;;;5073358;28;19919;-59
2022/08/12 06:28:16;;;;;;;;;;;742.70;1305.60;;;;;;5073511;28;20007;-65
2022/08/12 06:30:43;;;;;;;;;;;743.30;1280.00;;;;;;5073022;28;20290;-58
2022/08/12 06:33:09;;;;;;;;;;;742.90;1305.60;;;;;;5073144;28;19923;-68
2022/08/12 06:35:34;;;;;;;;;;;768.10;1280.00;;;;;;5073501;28;19908;-68
2022/08/12 06:38:02;;;;;;;;;;;819.30;1203.20;;;;;;5073536;28;19909;-68
2022/08/12 06:43:12;;;;;;;;;;;922.10;1024.00;;;;;;5073810;28;20263;-68
2022/08/12 06:45:43;;;;;;;;;;;973.10;972.80;;;;;;5073247;28;19909;-61
2022/08/12 06:48:10;;;;;;;;;;;998.80;947.20;;;;;;5073215;28;20304;-66
2022/08/12 06:50:35;;;;;;;;;;;999.20;921.60;;;;;;5073248;28;19916;-66
2022/08/12 06:53:03;;;;;;;;;;;1049.70;921.60;;;;;;5073250;28;20461;-70
2022/08/12 06:55:29;;;;;;;;;;;1024.00;896.00;;;;;;5072921;28;19947;-70
2022/08/12 06:57:55;;;;;;;;;;;998.90;921.60;;;;;;5073366;28;19952;-69
2022/08/12 07:00:22;;;;;;;;;;;999.00;896.00;;;;;;5072541;28;19957;-70
2022/08/12 07:02:48;;;;;;;;;;;999.20;896.00;;;;;;5072826;28;19920;-60
2022/08/12 07:05:13;;;;;;;;;;;999.10;896.00;;;;;;5073188;28;19916;-65
2022/08/12 07:07:39;;;;;;;;;;;1049.80;870.40;;;;;;5072987;28;19919;-68
2022/08/12 07:10:04;;;;;;;;;;;1075.20;844.80;;;;;;5072942;28;19932;-69
2022/08/12 07:12:30;;;;;;;;;;;1049.90;870.40;;;;;;5072598;28;19916;-59
2022/08/12 07:14:56;;;;;;;;;;;1049.90;844.80;;;;;;5072825;28;19908;-59
2022/08/12 07:17:22;;;;;;;;;;;1075.30;844.80;;;;;;5072703;28;19954;-59
2022/08/12 07:19:50;;;;;;;;;;;1075.80;793.60;;;;;;5072443;28;19968;-60
2022/08/12 07:22:16;;;;;;;;;;;1126.40;819.20;;;;;;5072632;28;20339;-69
2022/08/12 07:24:42;;;;;;;;;;;1126.90;793.60;;;;;;5072417;28;19948;-66
2022/08/12 07:27:08;;;;;;;;;;;1152.90;768.00;;;;;;5072436;28;19913;-66
2022/08/12 07:29:33;;;;;;;;;;;1127.30;793.60;;;;;;5072367;28;20026;-60
2022/08/12 07:31:59;;;;;;;;;;;1152.90;768.00;;;;;;5072068;28;19921;-68
2022/08/12 07:34:25;;;;;;;;;;;1152.10;768.00;;;;;;5072316;28;19908;-68
2022/08/12 07:36:51;;;;;;;;;;;1126.90;793.60;;;;;;5072065;28;20286;-60
2022/08/12 07:39:16;;;;;;;;;;;1152.70;768.00;;;;;;5072231;28;19909;-68
2022/08/12 07:41:43;;;;;;;;;;;1152.10;768.00;;;;;;5072198;28;19916;-70
2022/08/12 07:44:09;;;;;;;;;;;1178.30;716.80;;;;;;5072119;28;19946;-70
2022/08/12 07:46:37;;;;;;;;;;;1177.60;742.40;;;;;;5072232;28;19909;-71
2022/08/12 07:49:04;;;;;;;;;;;1203.30;742.40;;;;;;5072101;28;19995;-71
2022/08/12 07:51:31;;;;;;;;;;;1178.50;716.80;;;;;;5071564;28;19921;-70
2022/08/12 07:53:57;;;;;;;;;;;1177.70;742.40;;;;;;5072251;28;19909;-62
2022/08/12 07:56:23;;;;;;;;;;;1203.80;716.80;;;;;;5072238;28;19964;-71
2022/08/12 07:58:49;;;;;;;;;;;1177.60;742.40;;;;;;5071920;28;19947;-62
2022/08/12 08:01:16;;;;;;;;;;;1203.30;742.40;;;;;;5071747;28;19966;-69
2022/08/12 08:06:27;;;;;;;;;;;1203.80;716.80;;;;;;5072230;28;20482;-62
2022/08/12 08:08:55;;;;;;;;;;;1203.70;716.80;;;;;;5071656;28;19908;-71
2022/08/12 08:14:06;;;;;;;;;;;1177.60;742.40;;;;;;5071465;28;20030;-64
2022/08/12 08:16:32;;;;;;;;;;;1178.30;716.80;;;;;;5071298;28;19915;-70
2022/08/12 08:18:58;;;;;;;;;;;1126.40;819.20;;;;;;5071273;28;19916;-71
2022/08/12 08:21:26;;;;;;;;;;;1101.50;793.60;;;;;;5071395;28;19909;-70
2022/08/12 08:26:36;;;;;;;;;;;1101.00;819.20;;;;;;5071657;28;19936;-71
2022/08/12 08:29:02;;;;;;;;;;;1126.60;793.60;;;;;;5071073;28;19915;-69
2022/08/12 08:31:27;;;;;;;;;;;1127.10;768.00;;;;;;5070829;28;19920;-64
2022/08/12 08:33:53;;;;;;;;;;;1101.10;793.60;;;;;;5071272;28;19978;-69
2022/08/12 08:36:20;;;;;;;;;;;1049.80;844.80;;;;;;5070956;28;19943;-61
2022/08/12 08:38:45;;;;;;;;;;;1024.20;844.80;;;;;;5071161;28;19912;-67
2022/08/12 08:43:58;;;;;;;;;;;922.10;896.00;;;;;;5071622;28;19920;-69
2022/08/12 08:46:24;;;;;;;;;;;871.10;972.80;;;;;;5071282;28;20350;-69
2022/08/12 08:48:50;;;;;;;;;;;845.40;998.40;;;;;;5070915;28;19916;-68
2022/08/12 08:51:15;;;;;;;;;;;845.70;972.80;;;;;;5071134;28;20403;-68
2022/08/12 08:53:42;;;;;;;;;;;845.20;1024.00;;;;;;5071040;28;19909;-70
2022/08/12 08:56:10;;;;;;;;;;;845.20;1024.00;;;;;;5070842;28;20038;-67
2022/08/12 08:58:39;;;;;;;;;;;845.10;1024.00;;;;;;5071168;28;19926;-69
2022/08/12 09:01:05;;;;;;;;;;;845.40;998.40;;;;;;5070853;28;19921;-70
2022/08/12 09:03:32;;;;;;;;;;;845.00;1024.00;;;;;;5070800;28;19913;-69
2022/08/12 09:06:00;;;;;;;;;;;845.70;998.40;;;;;;5070997;28;19954;-68
2022/08/12 09:08:25;;;;;;;;;;;845.60;1024.00;;;;;;5071044;28;20004;-68
2022/08/12 09:10:51;;;;;;;;;;;845.10;1049.60;;;;;;5070660;28;20355;-69
2022/08/12 09:13:31;;;;;;;;;;;845.40;1024.00;;;;;;5070971;28;19908;-69
2022/08/12 09:15:57;;;;;;;;;;;870.40;998.40;;;;;;5070984;28;20845;-66
2022/08/12 09:18:23;;;;;;;;;;;870.40;998.40;;;;;;5071069;28;19908;-69
2022/08/12 09:20:49;;;;;;;;;;;845.50;998.40;;;;;;5070732;28;19920;-67
2022/08/12 09:23:16;;;;;;;;;;;870.50;998.40;;;;;;5070958;28;19962;-69
2022/08/12 09:25:43;;;;;;;;;;;845.60;998.40;;;;;;5072654;28;19916;-65
2022/08/12 09:28:10;;;;;;;;;;;845.70;1024.00;;;;;;5074444;28;19908;-69
2022/08/12 09:30:43;;;;;;;;;;;844.90;1024.00;;;;;;5074450;28;20419;-69
2022/08/12 09:33:08;;;;;;;;;;;820.10;1024.00;;;;;;5074295;28;19916;-69
2022/08/12 09:35:35;;;;;;;;;;;819.80;1024.00;;;;;;5074588;28;19909;-69
2022/08/12 09:38:01;;;;;;;;;;;819.70;1049.60;;;;;;5074336;28;19913;-69
2022/08/12 09:40:27;;;;;;;;;;;844.90;1049.60;;;;;;5074527;28;19913;-59
2022/08/12 09:45:40;;;;;;;;;;;820.00;1049.60;;;;;;5074645;28;20281;-65
2022/08/12 09:48:07;;;;;;;;;;;819.40;1075.20;;;;;;5074481;28;19939;-68
2022/08/12 09:50:33;;;;;;;;;;;819.60;1049.60;;;;;;5074326;28;19963;-70
2022/08/12 09:53:25;;;;;;;;;;;819.50;1075.20;;;;;;5074281;28;19913;-69
2022/08/12 09:55:51;;;;;;;;;;;819.30;1075.20;;;;;;5071920;28;19999;-70
2022/08/12 09:58:18;;;;;;;;;;;819.80;1049.60;;;;;;5074035;28;19908;-66
2022/08/12 10:00:45;;;;;;;;;;;844.80;1049.60;;;;;;5074071;28;19921;-69
2022/08/12 10:03:13;;;;;;;;;;;844.90;1049.60;;;;;;5074009;28;19916;-69
2022/08/12 10:05:42;;;;;;;;;;;819.60;1024.00;;;;;;5073824;28;19952;-69
2022/08/12 10:08:09;;;;;;;;;;;819.80;1024.00;;;;;;5073879;28;20282;-65
2022/08/12 10:13:43;;;;;;;;;;;820.00;998.40;;;;;;5074103;28;19915;-69
2022/08/12 10:16:11;;;;;;;;;;;820.10;1024.00;;;;;;5073687;28;20018;-69
2022/08/12 10:18:43;;;;;;;;;;;819.80;1024.00;;;;;;5073755;28;19908;-69
2022/08/12 10:21:14;;;;;;;;;;;844.80;1024.00;;;;;;5073766;28;19916;-70
2022/08/12 10:23:41;;;;;;;;;;;819.80;998.40;;;;;;5073632;28;19908;-69
2022/08/12 10:31:37;;;;;;;;;;;844.90;998.40;;;;;;5073488;28;20399;-68
2022/08/12 10:34:04;;;;;;;;;;;844.90;998.40;;;;;;5073428;28;20003;-65
2022/08/12 10:36:34;;;;;;;;;;;819.60;998.40;;;;;;5072468;28;20445;-68
2022/08/12 10:38:59;;;;;;;;;;;820.10;998.40;;;;;;5073321;28;19916;-70
2022/08/12 10:44:11;;;;;;;;;;;845.10;998.40;;;;;;5073560;28;19997;-61
2022/08/12 10:46:37;;;;;;;;;;;820.10;972.80;;;;;;5073299;28;20011;-69
2022/08/12 10:49:02;;;;;;;;;;;820.10;998.40;;;;;;5073314;28;19966;-70
2022/08/12 10:51:30;;;;;;;;;;;820.10;998.40;;;;;;5072949;28;20281;-70
2022/08/12 10:53:56;;;;;;;;;;;820.00;972.80;;;;;;5073208;28;20424;-61
2022/08/12 10:56:22;;;;;;;;;;;819.80;998.40;;;;;;5072835;28;19908;-68
2022/08/12 10:58:48;;;;;;;;;;;819.20;1024.00;;;;;;5072940;28;19962;-66
2022/08/12 11:01:14;;;;;;;;;;;819.80;998.40;;;;;;5072936;28;19924;-68
2022/08/12 11:03:40;;;;;;;;;;;819.60;1024.00;;;;;;5073020;28;19913;-68
2022/08/12 11:06:06;;;;;;;;;;;819.80;1024.00;;;;;;5072997;28;20373;-67
2022/08/12 11:08:33;;;;;;;;;;;819.60;1024.00;;;;;;5072758;28;19916;-68
2022/08/12 11:10:59;;;;;;;;;;;819.80;1049.60;;;;;;5072628;28;20404;-68
2022/08/12 11:13:24;;;;;;;;;;;819.80;1024.00;;;;;;5072847;28;19909;-69
2022/08/12 11:15:51;;;;;;;;;;;819.40;1049.60;;;;;;5072746;28;19920;-67
2022/08/12 11:18:17;;;;;;;;;;;819.30;1049.60;;;;;;5072425;28;19912;-61
2022/08/12 11:20:43;;;;;;;;;;;819.60;1049.60;;;;;;5072757;28;19916;-68
2022/08/12 11:23:08;;;;;;;;;;;819.30;1049.60;;;;;;5072495;28;19913;-66
2022/08/12 11:25:34;;;;;;;;;;;819.40;1049.60;;;;;;5072656;28;20358;-68
2022/08/12 11:27:59;;;;;;;;;;;819.20;1049.60;;;;;;5072332;28;20003;-65
2022/08/12 11:30:25;;;;;;;;;;;819.40;1049.60;;;;;;5072505;28;19966;-69
2022/08/12 11:32:50;;;;;;;;;;;819.80;1024.00;;;;;;5072382;28;20362;-68
2022/08/12 11:35:16;;;;;;;;;;;819.70;1024.00;;;;;;5072341;28;20349;-67
2022/08/12 11:37:42;;;;;;;;;;;819.90;1024.00;;;;;;5072143;28;20317;-68
2022/08/12 11:40:07;;;;;;;;;;;819.60;1024.00;;;;;;5072190;28;19908;-68
2022/08/12 11:42:34;;;;;;;;;;;819.80;1024.00;;;;;;5072330;28;19959;-69
2022/08/12 11:45:00;;;;;;;;;;;819.90;998.40;;;;;;5072351;28;19908;-68
2022/08/12 11:47:25;;;;;;;;;;;820.00;1024.00;;;;;;5071348;28;19919;-68
2022/08/12 11:49:51;;;;;;;;;;;819.60;1024.00;;;;;;5071686;28;19908;-67
2022/08/12 11:52:16;;;;;;;;;;;819.30;1049.60;;;;;;5071964;28;19917;-68
2022/08/12 11:54:42;;;;;;;;;;;819.40;1024.00;;;;;;5071814;28;20014;-68
2022/08/12 11:57:07;;;;;;;;;;;819.70;1049.60;;;;;;5072000;28;19908;-69
2022/08/12 11:59:33;;;;;;;;;;;819.30;1049.60;;;;;;5071917;28;19919;-68
2022/08/12 12:01:58;;;;;;;;;;;819.80;1024.00;;;;;;5071739;28;20003;-68
2022/08/12 12:04:24;;;;;;;;;;;794.20;1049.60;;;;;;5071947;28;19909;-69
2022/08/12 12:06:50;;;;;;;;;;;819.30;1049.60;;;;;;5071873;28;19943;-67
2022/08/12 12:09:15;;;;;;;;;;;819.60;1024.00;;;;;;5071851;28;19919;-68
2022/08/12 12:11:42;;;;;;;;;;;819.20;1024.00;;;;;;5071410;28;19916;-69
2022/08/12 12:14:08;;;;;;;;;;;819.60;1049.60;;;;;;5071331;28;19908;-60
2022/08/12 12:16:34;;;;;;;;;;;819.30;1049.60;;;;;;5071692;28;19912;-69
2022/08/12 12:19:00;;;;;;;;;;;819.30;1049.60;;;;;;5071257;28;20057;-67
2022/08/12 12:21:26;;;;;;;;;;;794.50;1049.60;;;;;;5071426;28;19956;-67
2022/08/12 12:23:53;;;;;;;;;;;819.40;1049.60;;;;;;5071413;28;19947;-68
2022/08/12 12:26:18;;;;;;;;;;;819.30;1049.60;;;;;;5071317;28;20385;-59
2022/08/12 12:28:44;;;;;;;;;;;794.20;1049.60;;;;;;5071446;28;20003;-69
2022/08/12 12:31:09;;;;;;;;;;;794.00;1075.20;;;;;;5071040;28;19969;-68
2022/08/12 12:33:35;;;;;;;;;;;794.20;1075.20;;;;;;5069057;28;19920;-69
2022/08/12 12:36:01;;;;;;;;;;;794.40;1075.20;;;;;;5068591;28;20282;-68
2022/08/12 12:38:26;;;;;;;;;;;794.20;1075.20;;;;;;5068573;28;20363;-68
2022/08/12 12:40:52;;;;;;;;;;;794.20;1049.60;;;;;;5068530;28;20381;-64
2022/08/12 12:43:18;;;;;;;;;;;794.40;1049.60;;;;;;5068546;28;19909;-67
2022/08/12 12:45:44;;;;;;;;;;;819.20;1049.60;;;;;;5068594;28;20625;-64
2022/08/12 12:48:11;;;;;;;;;;;819.30;1049.60;;;;;;5068192;28;19912;-58
2022/08/12 12:50:36;;;;;;;;;;;819.30;1049.60;;;;;;5068554;28;19908;-59
2022/08/12 12:53:02;;;;;;;;;;;794.50;1049.60;;;;;;5068385;28;20473;-68
2022/08/12 12:55:28;;;;;;;;;;;819.20;1049.60;;;;;;5068127;28;19949;-63
2022/08/12 12:57:57;;;;;;;;;;;819.60;1049.60;;;;;;5068438;28;19912;-65
2022/08/12 13:00:23;;;;;;;;;;;794.50;1049.60;;;;;;5066751;28;19923;-67
2022/08/12 13:02:55;;;;;;;;;;;819.20;1049.60;;;;;;5068342;28;19962;-59
2022/08/12 13:05:24;;;;;;;;;;;819.40;1049.60;;;;;;5067084;28;19908;-67
2022/08/12 13:07:52;;;;;;;;;;;819.50;1049.60;;;;;;5068088;28;19913;-65
2022/08/12 13:10:18;;;;;;;;;;;819.50;1049.60;;;;;;5068248;28;19909;-68
2022/08/12 13:12:43;;;;;;;;;;;819.60;1049.60;;;;;;5068367;28;19927;-68
2022/08/12 13:15:14;;;;;;;;;;;819.30;1049.60;;;;;;5068111;28;20654;-60
2022/08/12 13:17:48;;;;;;;;;;;794.50;1049.60;;;;;;5066616;28;19909;-62
2022/08/12 13:20:15;;;;;;;;;;;819.20;1075.20;;;;;;5067442;28;20428;-67
2022/08/12 13:22:41;;;;;;;;;;;819.30;1075.20;;;;;;5066704;28;20359;-68
2022/08/12 13:25:06;;;;;;;;;;;819.30;1049.60;;;;;;5068135;28;19916;-66
2022/08/12 13:27:33;;;;;;;;;;;794.50;1049.60;;;;;;5067974;28;20318;-65
2022/08/12 13:29:59;;;;;;;;;;;819.20;1075.20;;;;;;5067897;28;20307;-66
2022/08/12 13:32:28;;;;;;;;;;;819.20;1075.20;;;;;;5069014;28;19932;-67
2022/08/12 13:34:54;;;;;;;;;;;819.20;1075.20;;;;;;5069323;28;19954;-61
2022/08/12 13:37:25;;;;;;;;;;;794.50;1100.80;;;;;;5066503;28;20019;-67
2022/08/12 13:39:51;;;;;;;;;;;794.50;1075.20;;;;;;5069833;28;19915;-67
2022/08/12 13:42:21;;;;;;;;;;;794.50;1075.20;;;;;;5069887;28;20003;-59
2022/08/12 13:44:49;;;;;;;;;;;794.50;1075.20;;;;;;5070704;28;19912;-67
2022/08/12 13:47:15;;;;;;;;;;;819.20;1075.20;;;;;;5070693;28;19939;-59
2022/08/12 13:49:40;;;;;;;;;;;819.30;1075.20;;;;;;5069170;28;19947;-68
2022/08/12 13:52:07;;;;;;;;;;;819.20;1075.20;;;;;;5069089;28;20752;-68
2022/08/12 13:54:32;;;;;;;;;;;794.50;1075.20;;;;;;5069064;28;19916;-66
2022/08/12 13:56:58;;;;;;;;;;;819.20;1100.80;;;;;;5068952;28;19916;-62
2022/08/12 13:59:24;;;;;;;;;;;794.50;1100.80;;;;;;5069762;28;19952;-62
2022/08/12 14:01:53;;;;;;;;;;;819.30;1075.20;;;;;;5069537;28;19921;-68
2022/08/12 14:04:18;;;;;;;;;;;819.30;1075.20;;;;;;5068356;28;19917;-59
2022/08/12 14:06:49;;;;;;;;;;;794.40;1100.80;;;;;;5068672;28;20030;-68
2022/08/12 14:09:15;;;;;;;;;;;794.40;1100.80;;;;;;5068578;28;20030;-59
2022/08/12 14:11:41;;;;;;;;;;;793.80;1100.80;;;;;;5069507;28;19970;-68
2022/08/12 14:14:06;;;;;;;;;;;794.00;1126.40;;;;;;5072015;28;20342;-67
2022/08/12 14:16:33;;;;;;;;;;;793.80;1100.80;;;;;;5072054;28;19909;-68
2022/08/12 14:18:59;;;;;;;;;;;794.00;1100.80;;;;;;5072521;28;19913;-62
2022/08/12 14:21:25;;;;;;;;;;;794.00;1100.80;;;;;;5073264;28;19908;-59
2022/08/12 14:23:51;;;;;;;;;;;794.00;1126.40;;;;;;5072012;28;19920;-59
2022/08/12 14:26:19;;;;;;;;;;;793.60;1126.40;;;;;;5072317;28;20744;-60
2022/08/12 14:28:45;;;;;;;;;;;793.70;1126.40;;;;;;5072642;28;19991;-59
2022/08/12 14:31:12;;;;;;;;;;;793.70;1126.40;;;;;;5071840;28;19920;-69
2022/08/12 14:33:37;;;;;;;;;;;793.70;1126.40;;;;;;5072072;28;20413;-61
2022/08/12 14:36:05;;;;;;;;;;;793.90;1126.40;;;;;;5072039;28;19909;-69
2022/08/12 14:38:38;;;;;;;;;;;793.90;1126.40;;;;;;5072066;28;19912;-69
2022/08/12 14:41:05;;;;;;;;;;;793.70;1126.40;;;;;;5073142;28;19909;-68
2022/08/12 14:43:37;;;;;;;;;;;793.70;1126.40;;;;;;5073271;28;19908;-68
2022/08/12 14:46:02;;;;;;;;;;;793.80;1126.40;;;;;;5073188;28;19909;-70
2022/08/12 14:48:31;;;;;;;;;;;793.80;1126.40;;;;;;5073059;28;20022;-59
2022/08/12 14:50:57;;;;;;;;;;;793.80;1126.40;;;;;;5073231;28;19993;-60
2022/08/12 14:53:22;;;;;;;;;;;793.70;1126.40;;;;;;5073187;28;19913;-69
2022/08/12 14:55:48;;;;;;;;;;;793.60;1126.40;;;;;;5071765;28;20007;-59
2022/08/12 14:58:15;;;;;;;;;;;793.70;1126.40;;;;;;5071977;28;19908;-68
2022/08/12 15:03:28;;;;;;;;;;;793.70;1152.00;;;;;;5071142;28;21386;-61
2022/08/12 15:05:55;;;;;;;;;;;793.80;1152.00;;;;;;5072714;28;19912;-69
2022/08/12 15:08:23;;;;;;;;;;;793.80;1152.00;;;;;;5072588;28;19909;-59
2022/08/12 15:10:48;;;;;;;;;;;793.80;1126.40;;;;;;5072532;28;20061;-60
2022/08/12 15:13:17;;;;;;;;;;;793.90;1126.40;;;;;;5072984;28;19992;-69
2022/08/12 15:15:43;;;;;;;;;;;768.90;1100.80;;;;;;5072928;28;19909;-69
2022/08/12 15:18:09;;;;;;;;;;;768.90;1126.40;;;;;;5072513;28;20011;-60
2022/08/12 15:20:35;;;;;;;;;;;768.80;1126.40;;;;;;5072757;28;19959;-69
2022/08/12 15:23:02;;;;;;;;;;;768.90;1152.00;;;;;;5072303;28;19953;-69
2022/08/12 15:25:28;;;;;;;;;;;793.70;1152.00;;;;;;5072552;28;19908;-61
2022/08/12 15:27:54;;;;;;;;;;;768.90;1126.40;;;;;;5072822;28;20290;-68
2022/08/12 15:30:21;;;;;;;;;;;793.70;1152.00;;;;;;5072217;28;19908;-59
2022/08/12 15:32:49;;;;;;;;;;;768.90;1126.40;;;;;;5072376;28;19924;-67
2022/08/12 15:35:15;;;;;;;;;;;768.90;1126.40;;;;;;5072337;28;19908;-58
2022/08/12 15:37:40;;;;;;;;;;;793.70;1152.00;;;;;;5072057;28;19915;-64